Time;durP1;ratioP1;P1;durP2;ratioP2;P2;SDS_P1;SDS_P2;PMS_P1;PMS_P2;Temp;Humidity;BMP_temperature;BMP_pressure;BME280_temperature;BME280_humidity;BME280_pressure;Samples;Min_cycle;Max_cycle;Signal;HPM_P1;HPM_P2
2022/11/27 00:01:17;;;;;;;14.30;9.00;;;1.00;99.90;;;;;;5019675;28;20038;-75
2022/11/27 00:03:43;;;;;;;13.80;8.80;;;1.00;99.90;;;;;;5015402;28;20036;-75
2022/11/27 00:06:18;;;;;;;15.10;8.32;;;0.90;99.90;;;;;;5019469;28;20397;-75
2022/11/27 00:08:44;;;;;;;13.23;8.85;;;0.90;99.90;;;;;;5018863;28;20025;-75
2022/11/27 00:11:15;;;;;;;17.33;9.38;;;0.90;99.90;;;;;;5017829;28;20025;-75
2022/11/27 00:13:41;;;;;;;11.30;8.85;;;0.90;99.90;;;;;;5019775;28;20041;-75
2022/11/27 00:16:07;;;;;;;15.88;8.65;;;0.90;99.90;;;;;;5018847;28;20040;-75
2022/11/27 00:18:33;;;;;;;21.02;7.53;;;0.90;99.90;;;;;;5015157;28;20042;-75
2022/11/27 00:21:11;;;;;;;22.38;8.20;;;0.80;99.90;;;;;;5020771;28;20092;-75
2022/11/27 00:23:37;;;;;;;34.05;8.93;;;0.70;99.90;;;;;;5016908;28;20025;-75
2022/11/27 00:26:03;;;;;;;10.10;7.22;;;0.60;99.90;;;;;;5022537;28;20048;-75
2022/11/27 00:28:30;;;;;;;8.43;7.10;;;0.50;99.90;;;;;;5016386;28;20643;-75
2022/11/27 00:31:00;;;;;;;11.50;7.57;;;0.60;99.90;;;;;;5017044;28;20038;-75
2022/11/27 00:33:25;;;;;;;10.98;7.72;;;0.60;99.90;;;;;;5016478;28;20037;-75
2022/11/27 00:35:51;;;;;;;39.47;9.52;;;0.60;99.90;;;;;;5013784;28;20038;-75
2022/11/27 00:38:16;;;;;;;10.73;8.32;;;0.60;99.90;;;;;;5015885;28;20139;-75
2022/11/27 00:40:42;;;;;;;9.73;7.75;;;0.70;99.90;;;;;;5015717;28;20022;-75
2022/11/27 00:43:07;;;;;;;9.93;8.52;;;0.70;99.90;;;;;;5021357;28;20021;-75
2022/11/27 00:45:33;;;;;;;34.45;7.35;;;0.70;99.90;;;;;;5020629;28;20029;-75
2022/11/27 00:47:59;;;;;;;16.25;7.28;;;0.60;99.90;;;;;;5017806;28;20026;-75
2022/11/27 00:50:24;;;;;;;31.85;9.20;;;0.50;99.90;;;;;;5014517;28;20036;-75
2022/11/27 00:52:50;;;;;;;12.25;8.18;;;0.40;99.90;;;;;;5018291;28;20026;-75
2022/11/27 00:55:15;;;;;;;12.82;7.25;;;0.40;99.90;;;;;;5015745;28;20034;-75
2022/11/27 00:57:41;;;;;;;11.35;8.38;;;0.50;99.90;;;;;;5018631;28;20038;-75
2022/11/27 01:00:07;;;;;;;24.15;7.43;;;0.30;99.90;;;;;;5017789;28;20041;-75
2022/11/27 01:02:33;;;;;;;7.78;6.82;;;0.20;99.90;;;;;;5017274;28;20121;-75
2022/11/27 01:04:58;;;;;;;22.35;8.23;;;0.20;99.90;;;;;;5017971;28;20109;-75
2022/11/27 01:07:25;;;;;;;8.75;6.07;;;0.20;99.90;;;;;;5017197;28;20589;-75
2022/11/27 01:09:51;;;;;;;10.30;7.15;;;0.10;99.90;;;;;;5012065;28;20029;-75
2022/11/27 01:12:16;;;;;;;7.88;6.50;;;0.20;99.90;;;;;;5019609;28;20059;-75
2022/11/27 01:14:42;;;;;;;7.75;6.40;;;0.20;99.90;;;;;;5015692;28;20049;-75
2022/11/27 01:17:07;;;;;;;8.27;6.65;;;0.20;99.90;;;;;;5021173;28;20057;-75
2022/11/27 01:19:33;;;;;;;8.05;6.30;;;0.30;99.90;;;;;;5014163;28;20457;-76
2022/11/27 01:21:58;;;;;;;9.48;7.72;;;0.30;99.90;;;;;;5020110;28;20018;-75
2022/11/27 01:24:24;;;;;;;7.72;6.65;;;0.30;99.90;;;;;;5015661;28;20505;-75
2022/11/27 01:26:50;;;;;;;8.65;6.22;;;0.40;99.90;;;;;;5018491;28;20023;-75
2022/11/27 01:29:15;;;;;;;7.45;6.32;;;0.40;99.90;;;;;;5012841;28;20033;-75
2022/11/27 01:31:41;;;;;;;7.10;5.30;;;0.40;99.90;;;;;;5018287;28;20179;-75
2022/11/27 01:34:12;;;;;;;8.93;6.13;;;0.40;99.90;;;;;;5020738;28;20045;-75
2022/11/27 01:36:37;;;;;;;9.18;6.28;;;0.50;99.90;;;;;;5015414;28;20037;-75
2022/11/27 01:39:03;;;;;;;5.75;5.15;;;0.50;99.90;;;;;;5015326;28;20390;-75
2022/11/27 01:41:31;;;;;;;8.55;6.05;;;0.50;99.90;;;;;;5018746;28;20179;-75
2022/11/27 01:44:00;;;;;;;9.57;6.40;;;0.50;99.90;;;;;;5015583;28;20065;-75
2022/11/27 01:46:42;;;;;;;7.88;6.25;;;0.40;99.90;;;;;;5019330;28;20311;-75
2022/11/27 01:49:17;;;;;;;11.30;6.70;;;0.30;99.90;;;;;;5012421;28;20029;-75
2022/11/27 01:51:48;;;;;;;9.45;7.40;;;0.40;99.90;;;;;;5011630;28;20022;-75
2022/11/27 01:54:15;;;;;;;9.35;6.03;;;0.40;99.90;;;;;;5017718;28;20468;-75
2022/11/27 01:56:43;;;;;;;8.82;5.85;;;0.40;99.90;;;;;;5017190;28;20049;-75
2022/11/27 01:59:08;;;;;;;7.95;6.40;;;0.40;99.90;;;;;;5012326;28;20050;-75
2022/11/27 02:01:34;;;;;;;9.15;6.07;;;0.40;99.90;;;;;;5017804;28;20153;-71
2022/11/27 02:04:01;;;;;;;11.70;6.85;;;0.40;99.90;;;;;;5016874;28;20034;-72
2022/11/27 02:06:27;;;;;;;8.88;6.60;;;0.40;99.90;;;;;;5019102;28;20081;-73
2022/11/27 02:08:53;;;;;;;9.25;6.63;;;0.40;99.90;;;;;;5018697;28;20134;-71
2022/11/27 02:11:30;;;;;;;9.82;6.82;;;0.40;99.90;;;;;;5017374;28;20481;-72
2022/11/27 02:14:42;;;;;;;11.23;7.35;;;0.40;99.90;;;;;;5020877;28;20040;-72
2022/11/27 02:17:12;;;;;;;11.05;7.60;;;0.40;99.90;;;;;;5022263;28;20026;-71
2022/11/27 02:20:14;;;;;;;9.38;6.00;;;0.40;99.90;;;;;;5018832;28;20045;-72
2022/11/27 02:23:13;;;;;;;8.93;6.43;;;0.40;99.90;;;;;;5019671;28;20128;-71
2022/11/27 02:26:08;;;;;;;9.93;7.60;;;0.40;99.90;;;;;;5019427;28;20041;-71
2022/11/27 02:28:54;;;;;;;6.97;6.25;;;0.50;99.90;;;;;;5010699;28;20034;-72
2022/11/27 02:31:50;;;;;;;8.98;5.93;;;0.50;99.90;;;;;;5018456;28;20571;-71
2022/11/27 02:34:22;;;;;;;10.55;6.80;;;0.50;99.90;;;;;;5014681;28;20040;-72
2022/11/27 02:36:57;;;;;;;11.77;6.47;;;0.50;99.90;;;;;;5015825;28;20120;-71
2022/11/27 02:39:31;;;;;;;6.45;4.63;;;0.50;99.90;;;;;;5016581;28;20038;-72
2022/11/27 02:42:06;;;;;;;8.90;5.68;;;0.40;99.90;;;;;;5016766;28;20029;-72
2022/11/27 02:44:39;;;;;;;28.08;8.40;;;0.30;99.90;;;;;;5010642;28;20105;-73
2022/11/27 02:47:06;;;;;;;11.63;7.05;;;0.20;99.90;;;;;;5020919;28;20095;-74
2022/11/27 02:49:32;;;;;;;29.23;8.20;;;0.10;99.90;;;;;;5020397;28;20040;-72
2022/11/27 02:52:01;;;;;;;43.70;9.25;;;0.10;99.90;;;;;;5018731;28;20030;-72
2022/11/27 02:54:28;;;;;;;43.22;8.52;;;0.00;99.90;;;;;;5019859;28;20390;-71
2022/11/27 02:56:56;;;;;;;10.70;6.55;;;0.00;99.90;;;;;;5013632;28;20030;-71
2022/11/27 02:59:23;;;;;;;46.93;8.40;;;0.00;99.90;;;;;;5019732;28;20128;-71
2022/11/27 03:01:56;;;;;;;27.15;7.93;;;0.00;99.90;;;;;;5018270;28;20280;-71
2022/11/27 03:04:27;;;;;;;14.45;5.65;;;0.00;99.90;;;;;;5016849;28;20482;-71
2022/11/27 03:06:55;;;;;;;12.27;6.75;;;0.00;99.90;;;;;;5018459;28;20029;-72
2022/11/27 03:09:32;;;;;;;39.97;10.07;;;0.00;99.90;;;;;;5016850;28;20033;-71
2022/11/27 03:11:58;;;;;;;17.67;7.65;;;-0.10;99.90;;;;;;5018317;28;20034;-72
2022/11/27 03:14:24;;;;;;;32.70;8.40;;;-0.10;99.90;;;;;;5018903;28;20030;-71
2022/11/27 03:16:59;;;;;;;36.22;11.18;;;-0.20;99.90;;;;;;5019625;28;20537;-71
2022/11/27 03:19:31;;;;;;;30.67;10.73;;;-0.20;99.90;;;;;;5014587;28;20092;-72
2022/11/27 03:22:01;;;;;;;16.58;7.07;;;-0.30;99.90;;;;;;5029254;28;20037;-71
2022/11/27 03:24:28;;;;;;;37.03;7.80;;;-0.30;99.90;;;;;;5027128;28;20037;-72
2022/11/27 03:26:56;;;;;;;43.90;8.85;;;-0.30;99.90;;;;;;5025384;28;20477;-71
2022/11/27 03:29:27;;;;;;;9.90;7.82;;;-0.30;99.90;;;;;;5025577;28;20057;-71
2022/11/27 03:31:54;;;;;;;35.92;9.18;;;-0.30;99.90;;;;;;5025294;28;20037;-71
2022/11/27 03:34:19;;;;;;;51.58;8.63;;;-0.40;99.90;;;;;;5025673;28;20485;-71
2022/11/27 03:36:45;;;;;;;12.00;7.15;;;-0.30;99.90;;;;;;5022137;28;20044;-71
2022/11/27 03:39:11;;;;;;;18.08;7.63;;;-0.20;99.90;;;;;;5026311;28;20053;-71
2022/11/27 03:41:55;;;;;;;7.90;5.28;;;-0.30;99.90;;;;;;5022323;28;20026;-72
2022/11/27 03:44:26;;;;;;;7.45;6.25;;;-0.20;99.90;;;;;;5025383;28;20108;-71
2022/11/27 03:47:03;;;;;;;6.07;5.47;;;-0.20;99.90;;;;;;5024347;28;20052;-71
2022/11/27 03:49:43;;;;;;;6.03;4.88;;;-0.20;99.90;;;;;;5021402;28;20095;-71
2022/11/27 03:52:20;;;;;;;7.85;5.35;;;-0.20;99.90;;;;;;5024364;28;20036;-71
2022/11/27 03:55:02;;;;;;;6.05;5.47;;;-0.20;99.90;;;;;;5026921;28;20030;-71
2022/11/27 03:58:01;;;;;;;5.85;5.25;;;-0.30;99.90;;;;;;5022172;28;20033;-71
2022/11/27 04:00:31;;;;;;;8.18;4.38;;;-0.10;99.90;;;;;;5023647;28;20045;-71
2022/11/27 04:02:57;;;;;;;6.40;5.18;;;-0.10;99.90;;;;;;5027428;28;20504;-71
2022/11/27 04:05:23;;;;;;;7.43;5.22;;;0.00;99.90;;;;;;5028685;28;20030;-72
2022/11/27 04:07:49;;;;;;;5.10;4.60;;;0.00;99.90;;;;;;5024853;28;20473;-71
2022/11/27 04:10:14;;;;;;;4.88;4.38;;;-0.10;99.90;;;;;;5024583;28;20036;-71
2022/11/27 04:12:40;;;;;;;5.47;4.90;;;-0.20;99.90;;;;;;5022548;28;20250;-71
2022/11/27 04:15:06;;;;;;;6.03;4.97;;;-0.20;99.90;;;;;;5026405;28;20041;-71
2022/11/27 04:17:32;;;;;;;7.13;5.28;;;-0.10;99.90;;;;;;5015935;28;20107;-72
2022/11/27 04:19:58;;;;;;;5.85;4.97;;;-0.10;99.90;;;;;;5023604;28;20070;-71
2022/11/27 04:22:23;;;;;;;38.22;5.85;;;-0.10;99.90;;;;;;5025662;28;20029;-72
2022/11/27 04:24:49;;;;;;;4.88;4.47;;;-0.10;99.90;;;;;;5026962;28;20026;-72
2022/11/27 04:27:15;;;;;;;6.53;5.32;;;-0.20;99.90;;;;;;5021708;28;20691;-71
2022/11/27 04:29:40;;;;;;;4.72;4.15;;;-0.10;99.90;;;;;;5026628;28;20033;-71
2022/11/27 04:32:06;;;;;;;5.43;4.20;;;-0.10;99.90;;;;;;5021029;28;20042;-72
2022/11/27 04:34:32;;;;;;;5.38;4.30;;;-0.20;99.90;;;;;;5021633;28;20457;-71
2022/11/27 04:36:57;;;;;;;5.38;4.35;;;-0.20;99.90;;;;;;5015410;28;20030;-71
2022/11/27 04:39:23;;;;;;;7.07;4.72;;;-0.20;99.90;;;;;;5021290;28;20124;-71
2022/11/27 04:41:49;;;;;;;4.80;4.40;;;-0.20;99.90;;;;;;5021985;28;20056;-71
2022/11/27 04:44:14;;;;;;;4.50;4.10;;;-0.20;99.90;;;;;;5024167;28;20072;-72
2022/11/27 04:46:40;;;;;;;4.65;4.13;;;-0.20;99.90;;;;;;5016196;28;20053;-72
2022/11/27 04:49:05;;;;;;;5.95;3.75;;;-0.20;99.90;;;;;;5015834;28;20037;-72
2022/11/27 04:51:31;;;;;;;5.10;4.60;;;-0.20;99.90;;;;;;5017285;28;20120;-72
2022/11/27 04:53:56;;;;;;;7.38;4.75;;;-0.20;99.90;;;;;;5016635;28;20493;-72
2022/11/27 04:56:22;;;;;;;43.60;6.65;;;-0.30;99.90;;;;;;5019267;28;20041;-72
2022/11/27 04:58:48;;;;;;;21.27;6.70;;;-0.30;99.90;;;;;;5020125;28;20050;-72
2022/11/27 05:01:14;;;;;;;3.97;3.67;;;-0.30;99.90;;;;;;5022889;28;20146;-72
2022/11/27 05:03:40;;;;;;;4.07;3.63;;;-0.40;99.90;;;;;;5020711;28;20032;-71
2022/11/27 05:06:06;;;;;;;4.45;4.05;;;-0.60;99.90;;;;;;5019160;28;20120;-71
2022/11/27 05:08:32;;;;;;;5.07;4.30;;;-0.60;99.90;;;;;;5020831;28;20029;-71
2022/11/27 05:11:03;;;;;;;5.85;4.60;;;-0.60;99.90;;;;;;5017756;28;20029;-72
2022/11/27 05:13:29;;;;;;;4.95;3.65;;;-0.60;99.90;;;;;;5017920;28;20029;-71
2022/11/27 05:15:55;;;;;;;4.22;3.88;;;-0.50;99.90;;;;;;5028494;28;20026;-72
2022/11/27 05:18:21;;;;;;;5.03;3.75;;;-0.50;99.90;;;;;;5016311;28;20096;-72
2022/11/27 05:20:47;;;;;;;4.80;4.30;;;-0.40;99.90;;;;;;5023207;28;20064;-71
2022/11/27 05:23:12;;;;;;;4.47;4.07;;;-0.60;99.90;;;;;;5021037;28;20437;-72
2022/11/27 05:25:38;;;;;;;4.38;3.95;;;-0.70;99.90;;;;;;5021977;28;20033;-71
2022/11/27 05:28:04;;;;;;;3.90;3.50;;;-0.70;99.90;;;;;;5015225;28;20034;-72
2022/11/27 05:30:29;;;;;;;3.83;2.88;;;-0.60;99.90;;;;;;5018567;28;20037;-71
2022/11/27 05:32:55;;;;;;;3.92;3.55;;;-0.60;99.90;;;;;;5020100;28;20026;-71
2022/11/27 05:35:20;;;;;;;3.75;3.40;;;-0.60;99.90;;;;;;5018529;28;20542;-72
2022/11/27 05:37:46;;;;;;;4.93;4.28;;;-0.60;99.90;;;;;;5019617;28;20033;-71
2022/11/27 05:40:12;;;;;;;6.28;4.07;;;-0.60;99.90;;;;;;5017135;28;20030;-72
2022/11/27 05:42:37;;;;;;;4.60;3.95;;;-0.60;99.90;;;;;;5019602;28;20461;-72
2022/11/27 05:45:03;;;;;;;4.63;4.20;;;-0.60;99.90;;;;;;5013827;28;20100;-72
2022/11/27 05:47:29;;;;;;;8.38;4.53;;;-0.60;99.90;;;;;;5019175;28;20060;-74
2022/11/27 05:49:54;;;;;;;5.80;4.45;;;-0.70;99.90;;;;;;5023008;28;20474;-71
2022/11/27 05:52:20;;;;;;;6.22;3.92;;;-0.60;99.90;;;;;;5019618;28;20041;-71
2022/11/27 05:54:45;;;;;;;3.75;3.38;;;-0.60;99.90;;;;;;5017447;28;20024;-72
2022/11/27 05:57:11;;;;;;;5.10;4.07;;;-0.60;99.90;;;;;;5021146;28;20033;-71
2022/11/27 05:59:37;;;;;;;4.13;3.60;;;-0.60;99.90;;;;;;5014059;28;20041;-71
2022/11/27 06:02:03;;;;;;;4.38;3.72;;;-0.60;99.90;;;;;;5021931;28;20094;-72
2022/11/27 06:04:32;;;;;;;3.88;3.35;;;-0.70;99.90;;;;;;5020426;28;20152;-72
2022/11/27 06:06:58;;;;;;;4.22;3.83;;;-0.90;99.90;;;;;;5022985;28;20038;-71
2022/11/27 06:09:23;;;;;;;5.25;3.97;;;-0.80;99.90;;;;;;5018205;28;20041;-71
2022/11/27 06:11:49;;;;;;;3.60;3.30;;;-0.80;99.90;;;;;;5020862;28;20053;-71
2022/11/27 06:14:15;;;;;;;3.58;3.28;;;-0.80;99.90;;;;;;5023612;28;20038;-71
2022/11/27 06:16:40;;;;;;;4.88;3.80;;;-0.80;99.90;;;;;;5021180;28;20112;-72
2022/11/27 06:19:07;;;;;;;12.90;5.38;;;-0.90;99.90;;;;;;5009231;28;20050;-72
2022/11/27 06:21:32;;;;;;;3.42;3.13;;;-1.00;99.90;;;;;;5022230;28;20178;-72
2022/11/27 06:23:59;;;;;;;4.95;3.45;;;-1.00;99.90;;;;;;5019456;28;20022;-72
2022/11/27 06:26:27;;;;;;;3.65;3.35;;;-0.90;99.90;;;;;;5017656;28;20034;-71
2022/11/27 06:28:54;;;;;;;4.68;3.58;;;-0.90;99.90;;;;;;5015868;28;20026;-73
2022/11/27 06:31:24;;;;;;;4.00;3.60;;;-0.80;99.90;;;;;;5021744;28;20049;-71
2022/11/27 06:33:52;;;;;;;6.00;4.60;;;-0.80;99.90;;;;;;5012948;28;20034;-71
2022/11/27 06:36:19;;;;;;;4.95;3.70;;;-0.90;99.90;;;;;;5019512;28;20041;-71
2022/11/27 06:38:45;;;;;;;5.53;4.20;;;-0.90;99.90;;;;;;5019224;28;20041;-71
2022/11/27 06:41:20;;;;;;;6.03;3.92;;;-0.90;99.90;;;;;;5020066;28;20437;-72
2022/11/27 06:43:47;;;;;;;7.45;4.38;;;-0.90;99.90;;;;;;5014427;28;20108;-72
2022/11/27 06:46:15;;;;;;;4.03;3.50;;;-0.90;99.90;;;;;;5020217;28;20057;-72
2022/11/27 06:48:42;;;;;;;4.55;4.15;;;-0.90;99.90;;;;;;5017885;28;20033;-72
2022/11/27 06:51:11;;;;;;;4.82;4.13;;;-1.00;99.90;;;;;;5016421;28;20030;-73
2022/11/27 06:53:37;;;;;;;5.22;4.10;;;-1.10;99.90;;;;;;5017225;28;22788;-73
2022/11/27 06:56:14;;;;;;;4.80;3.40;;;-1.00;99.90;;;;;;5020889;28;20079;-74
2022/11/27 06:58:40;;;;;;;4.95;4.45;;;-0.90;99.90;;;;;;5012631;28;20493;-72
2022/11/27 07:01:09;;;;;;;4.30;3.25;;;-0.90;99.90;;;;;;5017771;28;20152;-72
2022/11/27 07:03:34;;;;;;;4.60;3.92;;;-0.90;99.90;;;;;;5020129;28;20056;-71
2022/11/27 07:06:02;;;;;;;5.40;4.00;;;-0.90;99.90;;;;;;5019947;28;20033;-72
2022/11/27 07:08:28;;;;;;;5.35;3.70;;;-0.90;99.90;;;;;;5014731;28;20486;-71
2022/11/27 07:11:04;;;;;;;3.42;3.13;;;-0.90;99.90;;;;;;5011624;28;20105;-72
2022/11/27 07:13:30;;;;;;;6.35;3.75;;;-0.90;99.90;;;;;;5019461;28;20041;-71
2022/11/27 07:16:00;;;;;;;3.47;3.17;;;-1.10;99.90;;;;;;5021537;28;20040;-71
2022/11/27 07:18:26;;;;;;;4.20;3.60;;;-1.20;99.90;;;;;;5014981;28;20050;-71
2022/11/27 07:20:52;;;;;;;4.75;3.47;;;-1.20;99.90;;;;;;5017047;28;20034;-72
2022/11/27 07:23:18;;;;;;;4.38;3.97;;;-1.20;99.90;;;;;;5013783;28;20037;-72
2022/11/27 07:25:44;;;;;;;5.13;4.70;;;-1.20;99.90;;;;;;5016724;28;20872;-72
2022/11/27 07:28:10;;;;;;;8.88;4.22;;;-1.30;99.90;;;;;;5013223;28;20034;-71
2022/11/27 07:30:35;;;;;;;4.47;4.03;;;-1.40;99.90;;;;;;5009501;28;20030;-71
2022/11/27 07:33:01;;;;;;;3.90;3.50;;;-1.40;99.90;;;;;;5019567;28;20030;-71
2022/11/27 07:35:26;;;;;;;10.63;4.03;;;-1.40;99.90;;;;;;5018941;28;20085;-72
2022/11/27 07:37:52;;;;;;;5.80;4.45;;;-1.50;99.90;;;;;;5017871;28;20409;-71
2022/11/27 07:40:18;;;;;;;5.93;4.25;;;-1.50;99.90;;;;;;5016672;28;20045;-71
2022/11/27 07:42:44;;;;;;;6.05;5.03;;;-1.50;99.90;;;;;;5008002;28;20070;-72
2022/11/27 07:45:10;;;;;;;14.77;4.28;;;-1.50;99.90;;;;;;5018342;28;20030;-71
2022/11/27 07:47:36;;;;;;;7.55;4.60;;;-1.50;99.90;;;;;;5017871;28;20073;-71
2022/11/27 07:50:04;;;;;;;32.25;7.32;;;-1.50;99.90;;;;;;5015854;28;20033;-71
2022/11/27 07:52:30;;;;;;;8.68;5.05;;;-1.50;99.90;;;;;;5016603;28;20072;-71
2022/11/27 07:54:55;;;;;;;8.05;4.13;;;-1.40;99.90;;;;;;5013314;28;20572;-71
2022/11/27 07:57:21;;;;;;;23.38;5.90;;;-1.30;99.90;;;;;;5018304;28;20096;-72
2022/11/27 07:59:46;;;;;;;33.25;6.95;;;-1.30;99.90;;;;;;5013123;28;20038;-72
2022/11/27 08:02:12;;;;;;;11.55;4.00;;;-1.30;99.90;;;;;;5015173;28;20478;-73
2022/11/27 08:04:38;;;;;;;6.05;3.65;;;-1.20;99.90;;;;;;5015740;28;20057;-73
2022/11/27 08:07:04;;;;;;;6.68;3.45;;;-1.10;99.90;;;;;;5019554;28;20034;-72
2022/11/27 08:09:30;;;;;;;15.85;3.78;;;-1.10;99.90;;;;;;5021065;28;20485;-72
2022/11/27 08:11:55;;;;;;;10.18;4.65;;;-1.00;99.90;;;;;;5020809;28;20029;-71
2022/11/27 08:14:21;;;;;;;4.50;4.10;;;-1.00;99.90;;;;;;5015997;28;20589;-72
2022/11/27 08:16:46;;;;;;;10.90;5.43;;;-1.00;99.90;;;;;;5015448;28;20041;-72
2022/11/27 08:19:12;;;;;;;12.38;6.25;;;-1.00;99.90;;;;;;5014971;28;20045;-72
2022/11/27 08:21:38;;;;;;;36.17;8.40;;;-1.10;99.90;;;;;;5020685;28;20061;-72
2022/11/27 08:24:04;;;;;;;10.32;5.43;;;-1.00;99.90;;;;;;5016923;28;22543;-71
2022/11/27 08:26:30;;;;;;;13.73;5.40;;;-1.00;99.90;;;;;;5009851;28;20112;-72
2022/11/27 08:28:56;;;;;;;4.75;4.07;;;-1.10;99.90;;;;;;5020345;28;20409;-72
2022/11/27 08:31:23;;;;;;;5.05;3.88;;;-1.00;99.90;;;;;;5019143;28;20056;-72
2022/11/27 08:33:48;;;;;;;36.60;6.53;;;-0.90;99.90;;;;;;5018010;28;20128;-72
2022/11/27 08:36:14;;;;;;;10.10;4.75;;;-0.90;99.90;;;;;;5019461;28;20501;-72
2022/11/27 08:38:40;;;;;;;12.70;5.03;;;-0.90;99.90;;;;;;5017494;28;20050;-71
2022/11/27 08:41:07;;;;;;;9.13;5.40;;;-0.90;99.90;;;;;;5018869;28;20044;-72
2022/11/27 08:43:33;;;;;;;7.03;4.57;;;-0.80;99.90;;;;;;5017489;28;20032;-72
2022/11/27 08:46:02;;;;;;;3.55;3.17;;;-0.80;99.90;;;;;;5016296;28;20167;-72
2022/11/27 08:48:27;;;;;;;7.40;4.78;;;-0.70;99.90;;;;;;5018754;28;20044;-72
2022/11/27 08:50:53;;;;;;;25.42;5.93;;;-0.60;99.90;;;;;;5017280;28;20033;-72
2022/11/27 08:53:19;;;;;;;4.78;3.97;;;-0.60;99.90;;;;;;5017341;28;20498;-71
2022/11/27 08:55:45;;;;;;;52.92;7.80;;;-0.50;99.90;;;;;;5017067;28;20088;-72
2022/11/27 08:58:10;;;;;;;14.05;6.95;;;-0.60;99.90;;;;;;5018093;28;20112;-72
2022/11/27 09:00:37;;;;;;;22.40;5.55;;;-0.50;99.90;;;;;;5017483;28;20116;-72
2022/11/27 09:03:03;;;;;;;17.00;6.30;;;-0.60;99.90;;;;;;5018347;28;20030;-73
2022/11/27 09:05:30;;;;;;;11.10;5.00;;;-0.60;99.90;;;;;;5006780;28;21057;-73
2022/11/27 09:07:55;;;;;;;12.95;5.78;;;-0.60;99.90;;;;;;5019305;28;20028;-73
2022/11/27 09:10:22;;;;;;;13.52;6.28;;;-0.70;99.90;;;;;;5029455;28;20037;-72
2022/11/27 09:12:49;;;;;;;18.90;6.82;;;-0.60;99.90;;;;;;5018436;28;20037;-72
2022/11/27 09:15:14;;;;;;;10.45;5.20;;;-0.50;99.90;;;;;;5018680;28;21009;-72
2022/11/27 09:17:40;;;;;;;20.30;6.72;;;-0.60;99.90;;;;;;5020456;28;20033;-72
2022/11/27 09:20:06;;;;;;;14.90;6.78;;;-0.50;99.90;;;;;;5016845;28;20481;-72
2022/11/27 09:22:33;;;;;;;22.80;6.63;;;-0.50;99.90;;;;;;5014975;28;20030;-72
2022/11/27 09:24:59;;;;;;;11.70;6.95;;;-0.50;99.90;;;;;;5016783;28;20127;-72
2022/11/27 09:27:24;;;;;;;29.02;7.55;;;-0.40;99.90;;;;;;5015518;28;20488;-72
2022/11/27 09:29:50;;;;;;;23.55;7.60;;;-0.40;99.90;;;;;;5018616;28;20448;-71
2022/11/27 09:32:16;;;;;;;12.95;7.35;;;-0.40;99.90;;;;;;5013201;28;20046;-72
2022/11/27 09:34:42;;;;;;;27.27;10.02;;;-0.50;99.90;;;;;;5018441;28;20065;-71
2022/11/27 09:37:08;;;;;;;11.02;7.70;;;-0.50;99.90;;;;;;5015271;28;20038;-72
2022/11/27 09:39:34;;;;;;;25.83;7.55;;;-0.40;99.90;;;;;;5016780;28;20102;-72
2022/11/27 09:42:03;;;;;;;20.17;7.38;;;-0.40;99.90;;;;;;5020687;28;20033;-72
2022/11/27 09:44:44;;;;;;;13.60;6.82;;;-0.30;99.90;;;;;;5012160;28;20203;-72
2022/11/27 09:47:37;;;;;;;27.67;8.57;;;-0.20;99.90;;;;;;5015489;28;20057;-72
2022/11/27 09:50:06;;;;;;;24.85;9.10;;;-0.10;99.90;;;;;;5012231;28;20080;-72
2022/11/27 09:53:21;;;;;;;14.20;7.05;;;-0.10;99.90;;;;;;5013525;28;20088;-72
2022/11/27 09:55:53;;;;;;;10.15;6.20;;;0.00;99.90;;;;;;4995388;28;20080;-72
2022/11/27 09:58:36;;;;;;;37.95;8.98;;;0.20;99.90;;;;;;5017194;28;20036;-72
2022/11/27 10:01:11;;;;;;;26.98;8.93;;;0.20;99.90;;;;;;5023418;28;20097;-72
2022/11/27 10:03:38;;;;;;;8.63;6.22;;;0.30;99.90;;;;;;5013150;28;20038;-73
2022/11/27 10:06:22;;;;;;;47.83;19.20;;;0.30;99.90;;;;;;5020910;28;20478;-72
2022/11/27 10:09:11;;;;;;;22.80;8.50;;;0.40;99.90;;;;;;5020859;28;20037;-72
2022/11/27 10:12:15;;;;;;;12.68;7.53;;;0.40;99.90;;;;;;5014971;28;20546;-73
2022/11/27 10:15:06;;;;;;;18.70;11.95;;;0.40;99.90;;;;;;5029852;28;20053;-73
2022/11/27 10:17:37;;;;;;;12.40;6.53;;;0.50;99.90;;;;;;5023038;28;20040;-74
2022/11/27 10:20:10;;;;;;;52.92;10.80;;;0.50;99.90;;;;;;5021553;28;20116;-73
2022/11/27 10:22:49;;;;;;;14.07;6.80;;;0.60;99.90;;;;;;5018306;28;20599;-73
2022/11/27 10:25:14;;;;;;;17.40;8.13;;;0.60;99.90;;;;;;5012497;28;20172;-73
2022/11/27 10:28:03;;;;;;;17.35;8.80;;;0.70;99.90;;;;;;5013861;28;20124;-73
2022/11/27 10:30:32;;;;;;;19.85;10.77;;;0.70;99.90;;;;;;5008161;28;20038;-73
2022/11/27 10:33:00;;;;;;;34.42;10.10;;;0.80;99.90;;;;;;5013801;28;20040;-73
2022/11/27 10:35:29;;;;;;;43.85;10.90;;;0.70;99.90;;;;;;5016939;28;20038;-73
2022/11/27 10:38:04;;;;;;;42.42;12.10;;;0.80;99.90;;;;;;5015923;28;20065;-73
2022/11/27 10:40:38;;;;;;;37.17;11.63;;;0.80;99.90;;;;;;5014869;28;20052;-73
2022/11/27 10:43:12;;;;;;;56.55;12.80;;;0.80;99.90;;;;;;5016618;28;20033;-73
2022/11/27 10:46:02;;;;;;;21.45;10.75;;;0.80;99.90;;;;;;5012199;28;20044;-73
2022/11/27 10:48:28;;;;;;;22.48;10.05;;;0.80;99.90;;;;;;5007300;28;20028;-73
2022/11/27 10:50:54;;;;;;;15.98;8.50;;;1.00;99.90;;;;;;5016322;28;20030;-72
2022/11/27 10:53:26;;;;;;;14.32;9.00;;;1.10;99.90;;;;;;5017520;28;20434;-73
2022/11/27 10:56:00;;;;;;;15.98;9.30;;;1.20;99.90;;;;;;5016608;28;20457;-73
2022/11/27 10:58:33;;;;;;;19.48;9.23;;;1.30;99.90;;;;;;5019517;28;20745;-73
2022/11/27 11:01:07;;;;;;;15.02;10.40;;;1.30;99.90;;;;;;5016010;28;20050;-73
2022/11/27 11:03:34;;;;;;;13.70;8.93;;;1.30;99.90;;;;;;5016941;28;20025;-73
2022/11/27 11:06:04;;;;;;;17.80;10.35;;;1.40;99.90;;;;;;5009182;28;20033;-73
2022/11/27 11:08:30;;;;;;;16.48;9.05;;;1.30;99.90;;;;;;5019941;28;20048;-73
2022/11/27 11:10:57;;;;;;;16.30;9.98;;;1.40;99.90;;;;;;5015432;28;20034;-73
2022/11/27 11:13:27;;;;;;;18.67;12.30;;;1.40;99.90;;;;;;5021957;28;20033;-73
2022/11/27 11:15:55;;;;;;;17.95;11.23;;;1.40;99.90;;;;;;5017651;28;20481;-73
2022/11/27 11:18:32;;;;;;;23.20;13.20;;;1.40;99.90;;;;;;5018039;28;20083;-73
2022/11/27 11:21:01;;;;;;;15.80;10.35;;;1.40;99.90;;;;;;5017357;28;20049;-73
2022/11/27 11:23:30;;;;;;;16.60;9.32;;;1.40;99.90;;;;;;5016019;28;20037;-72
2022/11/27 11:26:00;;;;;;;18.35;10.10;;;1.40;99.90;;;;;;5019730;28;20022;-72
2022/11/27 11:28:26;;;;;;;16.35;11.20;;;1.50;99.90;;;;;;5010843;28;20037;-72
2022/11/27 11:31:00;;;;;;;21.80;11.77;;;1.50;99.90;;;;;;5018050;28;20029;-73
2022/11/27 11:33:27;;;;;;;18.80;10.63;;;1.50;99.90;;;;;;5014370;28;20060;-72
2022/11/27 11:35:58;;;;;;;19.05;11.40;;;1.50;99.90;;;;;;5017684;28;20033;-72
2022/11/27 11:38:30;;;;;;;22.13;11.15;;;1.60;99.90;;;;;;5012856;28;20040;-72
2022/11/27 11:41:04;;;;;;;19.63;10.82;;;1.60;99.90;;;;;;5018212;28;20552;-72
2022/11/27 11:43:34;;;;;;;16.00;10.52;;;1.60;99.90;;;;;;5016815;28;20052;-72
2022/11/27 11:46:22;;;;;;;17.35;10.70;;;1.70;99.90;;;;;;5020130;28;20053;-72
2022/11/27 11:48:56;;;;;;;19.50;12.02;;;1.70;99.90;;;;;;5016391;28;20520;-72
2022/11/27 11:51:53;;;;;;;18.02;10.02;;;1.80;99.90;;;;;;5020192;28;20045;-72
2022/11/27 11:54:32;;;;;;;19.67;10.10;;;1.80;99.90;;;;;;5017085;28;20037;-72
2022/11/27 11:57:01;;;;;;;14.85;9.90;;;1.80;99.90;;;;;;5016408;28;20080;-72
2022/11/27 11:59:53;;;;;;;13.68;9.50;;;1.90;99.90;;;;;;5016496;28;20034;-72
2022/11/27 12:02:39;;;;;;;14.93;10.30;;;1.90;99.90;;;;;;5016266;28;20041;-72
2022/11/27 12:05:17;;;;;;;14.35;9.55;;;2.00;99.90;;;;;;5021769;28;20078;-72
2022/11/27 12:07:49;;;;;;;17.05;11.57;;;2.10;99.90;;;;;;5018289;28;20029;-73
2022/11/27 12:10:14;;;;;;;18.63;12.25;;;2.10;99.90;;;;;;5022174;28;20041;-72
2022/11/27 12:13:04;;;;;;;16.75;11.45;;;2.10;99.90;;;;;;5019723;28;20042;-72
2022/11/27 12:15:43;;;;;;;18.38;11.93;;;2.10;99.90;;;;;;5020417;28;20150;-73
2022/11/27 12:18:35;;;;;;;14.98;10.07;;;2.20;99.90;;;;;;5018101;28;20401;-73
2022/11/27 12:21:14;;;;;;;15.48;10.95;;;2.10;99.90;;;;;;5017711;28;20065;-72
2022/11/27 12:24:13;;;;;;;15.45;11.23;;;2.10;99.90;;;;;;5015460;28;20029;-75
2022/11/27 12:27:16;;;;;;;17.83;10.48;;;2.20;99.90;;;;;;5017513;28;20079;-72
2022/11/27 12:30:06;;;;;;;15.15;9.40;;;2.30;99.90;;;;;;5011862;28;20042;-72
2022/11/27 12:33:12;;;;;;;16.75;10.63;;;2.30;99.90;;;;;;5019874;28;20054;-72
2022/11/27 12:35:56;;;;;;;14.23;9.20;;;2.30;99.90;;;;;;5016766;28;20021;-73
2022/11/27 12:38:59;;;;;;;16.15;11.63;;;2.30;99.90;;;;;;5015849;28;20037;-73
2022/11/27 12:41:57;;;;;;;18.27;11.75;;;2.20;99.90;;;;;;5018914;28;20405;-73
2022/11/27 12:44:35;;;;;;;18.73;10.73;;;2.20;99.90;;;;;;5011087;28;20058;-74
2022/11/27 12:47:15;;;;;;;13.38;10.10;;;2.20;99.90;;;;;;5019179;28;20149;-72
2022/11/27 12:49:44;;;;;;;15.70;9.63;;;2.20;99.90;;;;;;5017669;28;20287;-72
2022/11/27 12:52:18;;;;;;;15.20;9.40;;;2.20;99.90;;;;;;5018603;28;20081;-72
2022/11/27 12:54:51;;;;;;;10.75;7.95;;;2.20;99.90;;;;;;5015702;28;20041;-72
2022/11/27 12:57:22;;;;;;;7.57;5.15;;;2.20;99.90;;;;;;5016994;28;20049;-72
2022/11/27 13:00:02;;;;;;;9.73;6.95;;;2.10;99.90;;;;;;5013198;28;20735;-72
2022/11/27 13:02:51;;;;;;;11.50;7.82;;;2.10;99.90;;;;;;5014637;28;20045;-73